createdAt,value
2018-01-30T00:58:03.309Z,91.38
2018-01-30T01:00:29.486Z,91.46
2018-01-30T01:02:55.701Z,91.40
2018-01-30T01:05:21.979Z,91.34
2018-01-30T01:07:48.149Z,91.22
2018-01-30T01:10:14.308Z,91.30
2018-01-30T01:12:40.503Z,91.80
2018-01-30T01:15:06.772Z,91.83
2018-01-30T01:17:33.000Z,91.91
2018-01-30T01:19:59.142Z,92.02
2018-01-30T01:22:25.308Z,92.10
2018-01-30T01:24:51.560Z,91.96
2018-01-30T01:27:17.982Z,91.73
2018-01-30T01:29:45.155Z,92.02
2018-01-30T01:32:11.471Z,92.13
2018-01-30T01:34:37.787Z,92.05
2018-01-30T01:37:04.118Z,91.83
2018-01-30T01:39:30.261Z,91.64
2018-01-30T01:41:56.415Z,91.61
2018-01-30T01:44:22.633Z,91.32
2018-01-30T01:46:48.823Z,91.22
2018-01-30T01:49:14.968Z,91.09
2018-01-30T01:51:41.150Z,91.35
2018-01-30T01:54:07.297Z,91.31
2018-01-30T01:56:33.456Z,91.11
2018-01-30T01:58:59.619Z,91.13
2018-01-30T02:01:25.772Z,91.20
2018-01-30T02:03:51.891Z,91.50
2018-01-30T02:06:18.102Z,91.53
2018-01-30T02:08:44.269Z,91.46
2018-01-30T02:11:10.449Z,91.36
2018-01-30T02:13:36.658Z,91.42
2018-01-30T02:16:02.943Z,91.43
2018-01-30T02:18:29.077Z,91.40
2018-01-30T02:20:55.293Z,91.59
2018-01-30T02:23:21.455Z,91.64
2018-01-30T02:25:47.603Z,91.79
2018-01-30T02:28:13.796Z,91.77
2018-01-30T02:30:39.940Z,91.70
2018-01-30T02:33:06.628Z,91.82
2018-01-30T02:35:34.028Z,91.78
2018-01-30T02:38:00.188Z,91.59
2018-01-30T02:40:26.346Z,91.61
2018-01-30T02:42:52.530Z,91.69
2018-01-30T02:45:18.711Z,92.13
2018-01-30T02:47:44.844Z,92.52
2018-01-30T02:50:11.034Z,92.48
2018-01-30T02:52:37.235Z,92.39
2018-01-30T02:55:04.415Z,92.14
2018-01-30T02:57:30.575Z,92.07
2018-01-30T02:59:56.721Z,92.16
2018-01-30T03:02:22.856Z,92.06
2018-01-30T03:04:49.042Z,91.95
2018-01-30T03:07:15.168Z,91.82
2018-01-30T03:09:41.382Z,91.91
2018-01-30T03:12:07.583Z,92.07
2018-01-30T03:14:33.754Z,92.17
2018-01-30T03:16:59.939Z,92.58
2018-01-30T03:19:26.137Z,92.52
2018-01-30T03:21:52.293Z,92.30
2018-01-30T03:24:18.415Z,92.26
2018-01-30T03:26:44.664Z,92.34
2018-01-30T03:29:10.822Z,92.31
2018-01-30T03:31:36.956Z,92.75
2018-01-30T03:34:03.183Z,92.71
2018-01-30T03:36:29.328Z,92.63
2018-01-30T03:38:55.485Z,92.72
2018-01-30T03:41:21.620Z,93.12
2018-01-30T03:43:47.796Z,92.91
2018-01-30T03:46:13.943Z,92.95
2018-01-30T03:48:40.129Z,92.83
2018-01-30T03:51:06.287Z,92.94
2018-01-30T03:53:32.429Z,92.81
2018-01-30T03:55:58.681Z,92.66
2018-01-30T03:58:24.831Z,93.55
2018-01-30T04:00:50.968Z,93.27
2018-01-30T04:03:17.125Z,92.86
2018-01-30T04:05:43.281Z,92.68
2018-01-30T04:08:09.418Z,92.55
2018-01-30T04:10:35.613Z,92.43
2018-01-30T04:13:01.766Z,92.39
2018-01-30T04:15:27.937Z,92.30
2018-01-30T04:17:54.230Z,92.42
2018-01-30T04:20:20.434Z,92.32
2018-01-30T04:22:46.597Z,92.29
2018-01-30T04:25:12.759Z,92.41
2018-01-30T04:27:38.936Z,92.61
2018-01-30T04:30:05.108Z,92.72
2018-01-30T04:32:31.336Z,92.50
2018-01-30T04:34:57.481Z,92.34
2018-01-30T04:37:23.652Z,92.16
2018-01-30T04:39:49.903Z,92.13
2018-01-30T04:42:16.912Z,92.34
2018-01-30T04:44:43.069Z,92.41
2018-01-30T04:47:09.342Z,92.43
2018-01-30T04:49:35.492Z,92.47
2018-01-30T04:52:01.624Z,92.59
2018-01-30T04:54:27.829Z,92.53
2018-01-30T04:56:53.976Z,92.37
2018-01-30T04:59:20.118Z,92.36
2018-01-30T05:01:46.287Z,92.40
2018-01-30T05:04:12.441Z,92.41
2018-01-30T05:06:38.609Z,92.39
2018-01-30T05:09:04.834Z,92.57
2018-01-30T05:11:30.999Z,92.64
2018-01-30T05:13:57.162Z,92.92
2018-01-30T05:16:23.366Z,92.91
2018-01-30T05:18:49.610Z,92.81
2018-01-30T05:21:15.760Z,92.74
2018-01-30T05:23:41.965Z,92.69
2018-01-30T05:26:08.119Z,92.68
2018-01-30T05:28:34.285Z,92.64
2018-01-30T05:31:00.461Z,92.83
2018-01-30T05:33:26.632Z,92.86
2018-01-30T05:35:52.786Z,92.85
2018-01-30T05:38:18.953Z,93.04
2018-01-30T05:40:45.107Z,93.11
2018-01-30T05:43:11.257Z,93.18
2018-01-30T05:45:37.425Z,93.20
2018-01-30T05:48:03.684Z,93.02
2018-01-30T05:50:29.863Z,92.98
2018-01-30T05:52:56.095Z,93.05
2018-01-30T05:55:22.246Z,93.10
2018-01-30T05:57:48.400Z,92.97
2018-01-30T06:00:14.572Z,92.98
2018-01-30T06:02:40.724Z,93.13
2018-01-30T06:05:06.880Z,93.21
2018-01-30T06:07:33.029Z,93.09
2018-01-30T06:09:59.203Z,93.17
2018-01-30T06:12:26.344Z,93.51
2018-01-30T06:14:52.472Z,93.75
2018-01-30T06:17:18.799Z,93.78
2018-01-30T06:19:45.040Z,93.68
2018-01-30T06:22:11.201Z,93.58
2018-01-30T06:24:37.431Z,93.55
2018-01-30T06:27:03.591Z,93.32
2018-01-30T06:29:29.756Z,93.37
2018-01-30T06:31:56.676Z,93.22
2018-01-30T06:34:22.879Z,93.05
2018-01-30T06:36:49.194Z,92.93
2018-01-30T06:39:16.914Z,92.75
2018-01-30T06:41:43.067Z,92.66
2018-01-30T06:44:09.194Z,92.60
2018-01-30T06:46:35.398Z,92.53
2018-01-30T06:49:01.646Z,92.60
2018-01-30T06:51:27.890Z,92.61
2018-01-30T06:53:54.093Z,92.48
2018-01-30T06:56:20.295Z,92.70
2018-01-30T06:58:46.483Z,93.22
2018-01-30T07:01:12.655Z,93.08
2018-01-30T07:03:38.777Z,93.21
2018-01-30T07:06:04.945Z,93.28
2018-01-30T07:08:31.121Z,93.34
2018-01-30T07:10:57.275Z,93.45
2018-01-30T07:13:23.497Z,93.35
2018-01-30T07:15:49.664Z,93.50
2018-01-30T07:18:15.880Z,93.46
2018-01-30T07:20:42.166Z,93.40
2018-01-30T07:23:08.785Z,93.55
2018-01-30T07:25:35.015Z,93.54
2018-01-30T07:28:01.243Z,93.47
2018-01-30T07:30:27.372Z,93.57
2018-01-30T07:32:53.537Z,93.83
2018-01-30T07:35:19.769Z,93.95
2018-01-30T07:37:45.905Z,93.88
2018-01-30T07:40:12.036Z,93.75
2018-01-30T07:42:38.248Z,93.74
2018-01-30T07:45:04.419Z,93.74
2018-01-30T07:47:30.617Z,93.80
2018-01-30T07:49:56.923Z,93.76
2018-01-30T07:52:23.092Z,93.81
2018-01-30T07:54:49.364Z,93.74
2018-01-30T07:57:15.590Z,93.72
2018-01-30T07:59:41.746Z,93.69
2018-01-30T08:02:07.895Z,93.51
2018-01-30T08:04:34.141Z,93.63
2018-01-30T08:07:01.199Z,93.76
2018-01-30T08:09:27.339Z,93.86
2018-01-30T08:11:53.545Z,93.87
2018-01-30T08:14:19.693Z,93.80
2018-01-30T08:16:45.872Z,93.75
2018-01-30T08:19:12.097Z,93.73
2018-01-30T08:21:38.312Z,93.72
2018-01-30T08:24:04.489Z,93.77
2018-01-30T08:26:30.634Z,93.76
2018-01-30T08:28:56.826Z,93.80
2018-01-30T08:31:22.998Z,93.87
2018-01-30T08:33:49.194Z,93.88
2018-01-30T08:36:15.356Z,93.86
2018-01-30T08:38:41.551Z,93.86
2018-01-30T08:41:07.712Z,93.82
2018-01-30T08:43:33.842Z,93.70
2018-01-30T08:46:00.048Z,93.72
2018-01-30T08:48:26.282Z,93.59
2018-01-30T08:50:52.498Z,93.74
2018-01-30T08:53:18.711Z,93.64
2018-01-30T08:55:45.176Z,93.52
2018-01-30T08:58:11.478Z,93.31
2018-01-30T09:00:37.704Z,93.24
2018-01-30T09:03:03.840Z,92.32
2018-01-30T09:05:30.007Z,92.21
2018-01-30T09:07:56.212Z,90.53
2018-01-30T09:10:22.374Z,90.55
2018-01-30T09:12:48.601Z,90.49
2018-01-30T09:15:14.933Z,89.48
2018-01-30T09:17:41.157Z,89.25
2018-01-30T09:20:07.467Z,88.99
2018-01-30T09:22:33.594Z,89.58
2018-01-30T09:24:59.735Z,90.09
2018-01-30T09:27:25.945Z,89.98
2018-01-30T09:29:52.154Z,89.52
2018-01-30T09:32:18.274Z,89.91
2018-01-30T09:34:44.455Z,89.53
2018-01-30T09:37:10.628Z,89.71
2018-01-30T09:39:36.816Z,89.16
2018-01-30T09:42:03.018Z,89.29
2018-01-30T09:44:29.220Z,89.12
2018-01-30T09:46:55.433Z,88.98
2018-01-30T09:49:21.672Z,90.08
2018-01-30T09:51:47.824Z,89.67
2018-01-30T09:54:14.006Z,89.90
2018-01-30T09:56:40.149Z,89.35
2018-01-30T09:59:06.337Z,89.30
2018-01-30T10:01:32.567Z,89.44
2018-01-30T10:03:58.739Z,89.52
2018-01-30T10:06:24.894Z,89.22
2018-01-30T10:08:51.080Z,89.59
2018-01-30T10:11:17.261Z,89.42
2018-01-30T10:13:43.517Z,88.40
2018-01-30T10:16:09.710Z,89.02
2018-01-30T10:18:37.131Z,88.06
2018-01-30T10:21:03.340Z,88.34
2018-01-30T10:23:30.107Z,88.89
2018-01-30T10:25:56.355Z,89.17
2018-01-30T10:28:23.188Z,88.98
2018-01-30T10:30:49.387Z,88.35
2018-01-30T10:33:15.751Z,88.54
2018-01-30T10:35:41.879Z,87.93
2018-01-30T10:38:08.055Z,87.91
2018-01-30T10:40:34.217Z,88.27
2018-01-30T10:43:00.403Z,87.01
2018-01-30T10:45:26.723Z,87.93
2018-01-30T10:50:53.936Z,87.64
2018-01-30T10:53:26.706Z,86.47
2018-01-30T10:55:53.204Z,86.57
2018-01-30T10:58:28.647Z,85.64
2018-01-30T11:01:03.395Z,85.70
2018-01-30T11:03:32.513Z,86.40
2018-01-30T11:06:00.852Z,84.99
2018-01-30T11:08:28.663Z,85.17
2018-01-30T11:10:56.317Z,84.92
2018-01-30T11:13:24.272Z,84.55
2018-01-30T11:15:55.662Z,84.71
2018-01-30T11:18:24.004Z,81.71
2018-01-30T11:20:51.726Z,81.40
2018-01-30T11:23:19.348Z,82.51
2018-01-30T11:25:47.072Z,82.15
2018-01-30T11:28:14.332Z,82.41
2018-01-30T11:30:43.290Z,82.67
2018-01-30T11:33:11.333Z,81.99
2018-01-30T11:35:40.568Z,81.04
2018-01-30T11:38:08.831Z,80.94
2018-01-30T11:40:37.567Z,81.03
2018-01-30T11:43:05.246Z,81.51
2018-01-30T11:48:26.751Z,81.84
2018-01-30T11:50:56.775Z,81.12
2018-01-30T11:53:26.279Z,80.50
2018-01-30T11:55:52.460Z,80.59
2018-01-30T11:58:18.652Z,80.51
2018-01-30T12:00:44.876Z,80.72
2018-01-30T12:03:11.030Z,81.28
2018-01-30T12:05:37.269Z,81.48
2018-01-30T12:08:03.506Z,81.72
2018-01-30T12:10:29.687Z,80.51
2018-01-30T12:12:55.841Z,81.00
2018-01-30T12:15:22.105Z,80.23
2018-01-30T12:17:48.341Z,79.11
2018-01-30T12:20:14.533Z,78.99
2018-01-30T12:22:40.759Z,79.30
2018-01-30T12:25:06.906Z,79.15
2018-01-30T12:27:33.067Z,78.88
2018-01-30T12:29:59.265Z,79.61
2018-01-30T12:32:25.405Z,78.56
2018-01-30T12:34:51.616Z,77.71
2018-01-30T12:37:17.776Z,77.56
2018-01-30T12:39:43.982Z,76.79
2018-01-30T12:42:10.213Z,77.66
2018-01-30T12:44:36.372Z,77.58
2018-01-30T12:47:02.563Z,76.85
2018-01-30T12:49:28.783Z,77.02
2018-01-30T12:51:55.903Z,77.48
2018-01-30T12:54:22.065Z,77.93
2018-01-30T12:56:48.314Z,77.47
2018-01-30T12:59:14.508Z,77.88
2018-01-30T13:01:40.640Z,77.04
2018-01-30T13:04:06.836Z,75.49
2018-01-30T13:06:32.966Z,74.54
2018-01-30T13:08:59.152Z,74.84
2018-01-30T13:11:25.338Z,75.48
2018-01-30T13:13:51.549Z,73.48
2018-01-30T13:16:17.721Z,73.85
2018-01-30T13:18:43.918Z,74.71
2018-01-30T13:21:10.773Z,74.48
2018-01-30T13:23:37.920Z,74.69
2018-01-30T13:26:04.087Z,73.95
2018-01-30T13:28:30.207Z,74.94
2018-01-30T13:30:56.341Z,74.74
2018-01-30T13:33:22.512Z,73.33
2018-01-30T13:35:48.703Z,73.20
2018-01-30T13:38:14.911Z,73.90
2018-01-30T13:40:41.142Z,74.01
2018-01-30T13:43:07.348Z,74.98
2018-01-30T13:45:33.488Z,73.63
2018-01-30T13:47:59.725Z,72.11
2018-01-30T13:50:27.082Z,73.01
2018-01-30T13:52:53.215Z,73.34
2018-01-30T13:55:19.440Z,73.76
2018-01-30T13:57:45.571Z,72.77
2018-01-30T14:00:11.767Z,72.13
2018-01-30T14:02:37.958Z,71.82
2018-01-30T14:05:04.113Z,72.53
2018-01-30T14:07:30.271Z,71.95
2018-01-30T14:09:56.536Z,71.45
2018-01-30T14:12:22.699Z,71.95
2018-01-30T14:14:48.831Z,71.64
2018-01-30T14:17:15.130Z,72.59
2018-01-30T14:19:41.256Z,72.74
2018-01-30T14:22:07.355Z,71.20
2018-01-30T14:24:33.574Z,69.03
2018-01-30T14:26:59.708Z,70.36
2018-01-30T14:29:25.830Z,68.92
2018-01-30T14:31:52.075Z,69.77
2018-01-30T14:34:18.221Z,68.17
2018-01-30T14:36:44.385Z,68.51
2018-01-30T14:39:10.558Z,68.69
2018-01-30T14:41:36.693Z,69.33
2018-01-30T14:44:02.863Z,68.76
2018-01-30T14:46:29.019Z,69.28
2018-01-30T14:48:55.208Z,69.60
2018-01-30T14:51:21.408Z,69.56
2018-01-30T14:53:47.559Z,69.42
2018-01-30T14:56:13.805Z,69.06
2018-01-30T14:58:39.962Z,68.54
2018-01-30T15:01:06.166Z,68.65
2018-01-30T15:03:32.294Z,67.92
2018-01-30T15:05:58.464Z,68.78
2018-01-30T15:08:24.706Z,68.57
2018-01-30T15:10:50.873Z,68.97
2018-01-30T15:13:17.065Z,68.49
2018-01-30T15:15:43.297Z,67.74
2018-01-30T15:18:09.633Z,67.87
2018-01-30T15:20:35.787Z,68.86
2018-01-30T15:23:01.927Z,69.98
2018-01-30T15:25:28.100Z,69.54
2018-01-30T15:27:54.245Z,69.56
2018-01-30T15:30:20.436Z,69.19
2018-01-30T15:32:46.588Z,70.24
2018-01-30T15:35:12.750Z,69.44
2018-01-30T15:37:38.944Z,70.08
2018-01-30T15:40:05.210Z,70.00
2018-01-30T15:42:31.334Z,69.86
2018-01-30T15:44:57.490Z,70.18
2018-01-30T15:47:24.718Z,70.03
2018-01-30T15:49:50.872Z,70.97
2018-01-30T15:52:17.013Z,70.75
2018-01-30T15:54:43.164Z,71.30
2018-01-30T15:57:09.304Z,71.37
2018-01-30T15:59:35.457Z,72.03
2018-01-30T16:02:01.735Z,72.08
2018-01-30T16:04:28.040Z,71.83
2018-01-30T16:06:54.216Z,72.27
2018-01-30T16:09:20.490Z,72.45
2018-01-30T16:11:46.629Z,72.48
2018-01-30T16:14:12.800Z,72.90
2018-01-30T16:16:38.942Z,73.16
2018-01-30T16:19:05.143Z,72.95
2018-01-30T16:21:31.265Z,73.45
2018-01-30T16:23:57.449Z,73.37
2018-01-30T16:26:23.598Z,73.35
2018-01-30T16:28:49.919Z,74.74
2018-01-30T16:31:16.138Z,74.21
2018-01-30T16:33:42.285Z,74.07
2018-01-30T16:36:08.499Z,74.30
2018-01-30T16:38:34.672Z,74.38
2018-01-30T16:41:00.848Z,74.83
2018-01-30T16:43:27.027Z,74.97
2018-01-30T16:45:53.236Z,75.08
2018-01-30T16:48:19.444Z,75.47
2018-01-30T16:50:45.579Z,76.69
2018-01-30T16:53:11.748Z,77.07
2018-01-30T16:55:38.111Z,78.11
2018-01-30T16:58:04.257Z,79.15
2018-01-30T17:00:30.439Z,79.68
2018-01-30T17:02:56.715Z,80.31
2018-01-30T17:05:22.937Z,80.83
2018-01-30T17:07:49.130Z,81.03
2018-01-30T17:10:15.389Z,81.11
2018-01-30T17:12:41.553Z,81.63
2018-01-30T17:15:07.727Z,81.66
2018-01-30T17:17:33.997Z,81.65
2018-01-30T17:20:00.162Z,82.06
2018-01-30T17:22:26.329Z,82.35
2018-01-30T17:24:52.568Z,82.42
2018-01-30T17:27:18.816Z,82.94
2018-01-30T17:29:45.010Z,82.81
2018-01-30T17:32:11.286Z,82.77
2018-01-30T17:34:37.459Z,82.84
2018-01-30T17:37:03.644Z,82.97
2018-01-30T17:39:29.835Z,82.96
2018-01-30T17:41:56.023Z,83.03
2018-01-30T17:44:22.213Z,83.27
2018-01-30T17:46:48.479Z,83.44
2018-01-30T17:49:14.729Z,83.63
2018-01-30T17:51:40.966Z,83.73
2018-01-30T17:54:07.214Z,84.02
2018-01-30T17:56:33.408Z,84.56
2018-01-30T17:58:59.602Z,84.85
2018-01-30T18:01:25.830Z,85.38
2018-01-30T18:03:51.997Z,85.20
2018-01-30T18:06:18.148Z,85.35
2018-01-30T18:08:44.322Z,85.24
2018-01-30T18:11:10.513Z,85.15
2018-01-30T18:13:36.680Z,85.35
2018-01-30T18:16:02.865Z,85.64
2018-01-30T18:18:29.233Z,85.71
2018-01-30T18:20:55.385Z,85.84
2018-01-30T18:23:21.565Z,85.65
2018-01-30T18:25:47.755Z,85.51
2018-01-30T18:28:13.970Z,85.76
2018-01-30T18:30:40.161Z,85.92
2018-01-30T18:33:06.332Z,86.03
2018-01-30T18:35:32.480Z,85.98
2018-01-30T18:37:58.690Z,85.73
2018-01-30T18:40:24.840Z,85.69
2018-01-30T18:42:51.027Z,85.79
2018-01-30T18:45:17.263Z,85.66
2018-01-30T18:47:43.532Z,85.68
2018-01-30T18:50:09.672Z,85.54
2018-01-30T18:52:35.960Z,85.45
2018-01-30T18:55:02.167Z,85.60
2018-01-30T18:57:28.389Z,85.91
2018-01-30T18:59:54.577Z,86.03
2018-01-30T19:02:20.827Z,86.23
2018-01-30T19:04:47.018Z,86.33
2018-01-30T19:07:13.189Z,86.39
2018-01-30T19:09:39.593Z,86.60
2018-01-30T19:12:05.854Z,86.95
2018-01-30T19:14:32.038Z,87.07
2018-01-30T19:16:58.187Z,87.30
2018-01-30T19:19:24.501Z,87.22
2018-01-30T19:21:51.505Z,87.09
2018-01-30T19:24:17.709Z,87.05
2018-01-30T19:26:43.961Z,87.01
2018-01-30T19:29:10.131Z,87.40
2018-01-30T19:31:36.317Z,87.42
2018-01-30T19:34:02.570Z,87.44
2018-01-30T19:36:28.720Z,87.70
2018-01-30T19:38:54.912Z,87.85
2018-01-30T19:41:21.143Z,87.82
2018-01-30T19:43:47.346Z,88.22
2018-01-30T19:46:13.508Z,88.13
2018-01-30T19:48:39.725Z,88.38
2018-01-30T19:51:05.897Z,88.65
2018-01-30T19:53:32.083Z,88.76
2018-01-30T19:55:58.299Z,89.00
2018-01-30T19:58:24.528Z,89.13
2018-01-30T20:00:50.722Z,89.25
2018-01-30T20:03:16.922Z,89.87
2018-01-30T20:05:43.149Z,89.84
2018-01-30T20:08:09.372Z,90.30
2018-01-30T20:10:35.599Z,91.25
2018-01-30T20:13:01.781Z,91.10
2018-01-30T20:15:27.948Z,91.36
2018-01-30T20:17:54.183Z,91.35
2018-01-30T20:20:20.377Z,91.04
2018-01-30T20:22:46.599Z,91.03
2018-01-30T20:25:12.989Z,91.20
2018-01-30T20:27:39.188Z,91.27
2018-01-30T20:30:05.365Z,91.27
2018-01-30T20:32:31.576Z,91.31
2018-01-30T20:34:57.792Z,91.57
2018-01-30T20:37:24.025Z,91.49
2018-01-30T20:39:50.224Z,91.46
2018-01-30T20:42:16.365Z,91.70
2018-01-30T20:44:42.553Z,91.66
2018-01-30T20:47:08.765Z,91.59
2018-01-30T20:49:34.986Z,91.72
2018-01-30T20:52:01.218Z,91.84
2018-01-30T20:54:27.402Z,92.00
2018-01-30T20:56:54.043Z,92.22
2018-01-30T20:59:20.402Z,92.51
2018-01-30T21:01:46.605Z,92.87
2018-01-30T21:04:12.889Z,93.08
2018-01-30T21:06:39.055Z,93.43
2018-01-30T21:09:05.242Z,93.69
2018-01-30T21:11:31.653Z,93.83
2018-01-30T21:13:57.829Z,93.83
2018-01-30T21:16:24.138Z,93.85
2018-01-30T21:18:50.378Z,93.96
2018-01-30T21:21:16.619Z,93.94
2018-01-30T21:23:43.047Z,93.87
2018-01-30T21:26:09.242Z,93.89
2018-01-30T21:28:35.437Z,93.87
2018-01-30T21:31:01.655Z,93.83
2018-01-30T21:33:27.942Z,93.75
2018-01-30T21:35:54.088Z,93.70
2018-01-30T21:38:20.230Z,93.59
2018-01-30T21:40:46.388Z,93.52
2018-01-30T21:43:12.562Z,93.38
2018-01-30T21:45:38.779Z,93.24
2018-01-30T21:48:04.979Z,93.11
2018-01-30T21:50:31.159Z,93.02
2018-01-30T21:52:57.307Z,92.92
2018-01-30T21:55:23.486Z,92.88
2018-01-30T21:57:49.662Z,92.87
2018-01-30T22:00:15.828Z,92.80
2018-01-30T22:02:42.011Z,92.67
2018-01-30T22:05:08.260Z,92.49
2018-01-30T22:07:34.391Z,92.42
2018-01-30T22:10:00.638Z,92.25
2018-01-30T22:12:26.834Z,92.03
2018-01-30T22:14:53.002Z,91.89
2018-01-30T22:17:19.236Z,91.75
2018-01-30T22:19:45.496Z,91.67
2018-01-30T22:22:11.655Z,91.62
2018-01-30T22:24:37.855Z,91.49
2018-01-30T22:27:04.061Z,91.68
2018-01-30T22:29:30.223Z,91.62
2018-01-30T22:31:56.431Z,91.55
2018-01-30T22:34:22.620Z,91.74
2018-01-30T22:36:48.792Z,91.94
2018-01-30T22:39:14.961Z,92.00
2018-01-30T22:41:41.088Z,92.15
2018-01-30T22:44:07.316Z,92.02
2018-01-30T22:46:33.552Z,92.05
